createdAt,value
2018-12-25T00:02:21.809Z,-1.90
2018-12-25T00:04:50.190Z,-1.80
2018-12-25T00:07:18.679Z,-1.90
2018-12-25T00:09:48.697Z,-2.00
2018-12-25T00:12:17.271Z,-1.90
2018-12-25T00:14:46.019Z,-1.90
2018-12-25T00:17:15.702Z,-1.80
2018-12-25T00:19:44.163Z,-1.90
2018-12-25T00:22:13.033Z,-1.90
2018-12-25T00:24:41.738Z,-1.90
2018-12-25T00:27:10.401Z,-1.80
2018-12-25T00:29:39.070Z,-1.80
2018-12-25T00:32:07.464Z,-1.90
2018-12-25T00:34:35.864Z,-1.80
2018-12-25T00:37:04.355Z,-1.80
2018-12-25T00:39:33.017Z,-1.80
2018-12-25T00:42:01.486Z,-1.90
2018-12-25T00:44:30.350Z,-1.90
2018-12-25T00:46:58.965Z,-1.90
2018-12-25T00:49:27.729Z,-1.90
2018-12-25T00:51:56.393Z,-1.90
2018-12-25T00:54:24.930Z,-1.90
2018-12-25T00:56:53.564Z,-1.90
2018-12-25T00:59:22.355Z,-2.00
2018-12-25T01:01:51.307Z,-2.00
2018-12-25T01:04:20.144Z,-2.00
2018-12-25T01:06:48.780Z,-1.90
2018-12-25T01:09:17.372Z,-1.90
2018-12-25T01:11:45.772Z,-1.90
2018-12-25T01:14:14.489Z,-1.90
2018-12-25T01:16:43.127Z,-2.00
2018-12-25T01:19:11.787Z,-1.90
2018-12-25T01:21:40.236Z,-1.90
2018-12-25T01:24:08.691Z,-1.90
2018-12-25T01:26:37.476Z,-1.90
2018-12-25T01:29:06.128Z,-1.90
2018-12-25T01:31:34.519Z,-1.90
2018-12-25T01:34:03.211Z,-1.90
2018-12-25T01:36:31.671Z,-1.90
2018-12-25T01:39:00.556Z,-1.90
2018-12-25T01:41:29.236Z,-1.90
2018-12-25T01:43:57.824Z,-1.90
2018-12-25T01:46:26.221Z,-1.90
2018-12-25T01:48:54.997Z,-1.80
2018-12-25T01:51:23.563Z,-1.90
2018-12-25T01:53:52.197Z,-1.90
2018-12-25T01:56:21.263Z,-1.90
2018-12-25T01:58:50.386Z,-1.90
2018-12-25T02:01:18.935Z,-2.00
2018-12-25T02:03:48.046Z,-1.90
2018-12-25T02:06:16.698Z,-1.90
2018-12-25T02:08:45.686Z,-1.80
2018-12-25T02:11:14.313Z,-1.80
2018-12-25T02:13:42.816Z,-1.90
2018-12-25T02:16:11.203Z,-1.90
2018-12-25T02:18:39.586Z,-1.90
2018-12-25T02:21:08.008Z,-1.90
2018-12-25T02:23:36.572Z,-1.90
2018-12-25T02:26:05.308Z,-1.90
2018-12-25T02:28:33.731Z,-1.90
2018-12-25T02:31:02.143Z,-1.90
2018-12-25T02:33:30.688Z,-1.90
2018-12-25T02:35:59.115Z,-2.00
2018-12-25T02:38:27.690Z,-2.00
2018-12-25T02:40:56.267Z,-2.00
2018-12-25T02:43:24.968Z,-2.00
2018-12-25T02:45:53.509Z,-2.00
2018-12-25T02:48:21.971Z,-2.00
2018-12-25T02:50:50.413Z,-2.00
2018-12-25T02:53:18.833Z,-2.00
2018-12-25T02:55:47.373Z,-2.00
2018-12-25T02:58:15.945Z,-1.90
2018-12-25T03:00:46.472Z,-1.90
2018-12-25T03:03:14.710Z,-1.90
2018-12-25T03:05:43.497Z,-1.90
2018-12-25T03:08:11.897Z,-1.90
2018-12-25T03:10:40.340Z,-1.90
2018-12-25T03:13:08.906Z,-1.90
2018-12-25T03:15:37.287Z,-1.90
2018-12-25T03:18:05.680Z,-1.90
2018-12-25T03:20:34.466Z,-1.90
2018-12-25T03:23:02.918Z,-1.80
2018-12-25T03:25:31.654Z,-1.90
2018-12-25T03:28:00.235Z,-1.90
2018-12-25T03:30:28.803Z,-1.80
2018-12-25T03:32:57.584Z,-1.80
2018-12-25T03:35:26.187Z,-1.80
2018-12-25T03:37:55.112Z,-1.70
2018-12-25T03:40:23.531Z,-1.80
2018-12-25T03:42:52.391Z,-1.80
2018-12-25T03:45:21.147Z,-1.70
2018-12-25T03:47:49.533Z,-1.70
2018-12-25T03:50:18.027Z,-1.60
2018-12-25T03:52:46.967Z,-1.50
2018-12-25T03:55:15.754Z,-1.50
2018-12-25T03:57:44.543Z,-1.50
2018-12-25T04:00:13.186Z,-1.60
2018-12-25T04:02:41.620Z,-1.60
2018-12-25T04:05:10.250Z,-1.50
2018-12-25T04:07:38.996Z,-1.50
2018-12-25T04:10:07.565Z,-1.50
2018-12-25T04:12:36.479Z,-1.50
2018-12-25T04:15:05.980Z,-1.50
2018-12-25T04:17:34.636Z,-1.50
2018-12-25T04:20:04.546Z,-1.50
2018-12-25T04:22:33.159Z,-1.50
2018-12-25T04:25:01.944Z,-1.50
2018-12-25T04:27:30.441Z,-1.40
2018-12-25T04:29:59.805Z,-1.50
2018-12-25T04:32:28.188Z,-1.50
2018-12-25T04:34:57.002Z,-1.50
2018-12-25T04:37:25.583Z,-1.50
2018-12-25T04:39:53.971Z,-1.50
2018-12-25T04:42:22.422Z,-1.50
2018-12-25T04:44:51.354Z,-1.40
2018-12-25T04:47:20.018Z,-1.40
2018-12-25T04:49:49.019Z,-1.40
2018-12-25T04:52:17.406Z,-1.40
2018-12-25T04:54:45.962Z,-1.30
2018-12-25T04:57:14.917Z,-1.40
2018-12-25T04:59:43.710Z,-1.40
2018-12-25T05:02:12.287Z,-1.40
2018-12-25T05:04:40.839Z,-1.40
2018-12-25T05:07:09.224Z,-1.40
2018-12-25T05:09:37.952Z,-1.40
2018-12-25T05:12:06.503Z,-1.40
2018-12-25T05:14:35.167Z,-1.40
2018-12-25T05:17:03.843Z,-1.40
2018-12-25T05:19:32.391Z,-1.50
2018-12-25T05:22:00.784Z,-1.50
2018-12-25T05:24:29.580Z,-1.40
2018-12-25T05:26:58.015Z,-1.40
2018-12-25T05:29:26.403Z,-1.40
2018-12-25T05:31:54.802Z,-1.40
2018-12-25T05:34:23.505Z,-1.50
2018-12-25T05:36:52.361Z,-1.40
2018-12-25T05:39:21.017Z,-1.30
2018-12-25T05:41:49.667Z,-1.30
2018-12-25T05:44:18.183Z,-1.30
2018-12-25T05:46:47.021Z,-1.30
2018-12-25T05:49:15.823Z,-1.30
2018-12-25T05:51:44.419Z,-1.20
2018-12-25T05:54:13.132Z,-1.20
2018-12-25T05:56:41.556Z,-1.20
2018-12-25T05:59:09.940Z,-1.20
2018-12-25T06:01:38.327Z,-1.20
2018-12-25T06:04:07.419Z,-1.20
2018-12-25T06:06:36.159Z,-1.20
2018-12-25T06:09:06.719Z,-1.20
2018-12-25T06:11:35.687Z,-1.20
2018-12-25T06:14:04.215Z,-1.30
2018-12-25T06:16:32.928Z,-1.20
2018-12-25T06:19:01.720Z,-1.20
2018-12-25T06:21:30.183Z,-1.20
2018-12-25T06:23:58.739Z,-1.10
2018-12-25T06:26:27.396Z,-1.20
2018-12-25T06:28:55.959Z,-1.20
2018-12-25T06:31:24.415Z,-1.10
2018-12-25T06:33:52.903Z,-1.10
2018-12-25T06:36:21.551Z,-1.10
2018-12-25T06:38:50.008Z,-1.20
2018-12-25T06:41:18.850Z,-1.10
2018-12-25T06:43:47.246Z,-1.00
2018-12-25T06:46:15.897Z,-1.00
2018-12-25T06:48:44.386Z,-1.00
2018-12-25T06:51:12.772Z,-1.10
2018-12-25T06:53:41.333Z,-1.00
2018-12-25T06:56:10.035Z,-1.00
2018-12-25T06:58:38.426Z,-1.00
2018-12-25T07:01:06.808Z,-0.80
2018-12-25T07:03:35.800Z,-0.90
2018-12-25T07:06:04.366Z,-0.90
2018-12-25T07:08:33.082Z,-0.90
2018-12-25T07:11:01.783Z,-0.90
2018-12-25T07:13:30.770Z,-0.90
2018-12-25T07:15:59.316Z,-0.90
2018-12-25T07:18:28.279Z,-1.00
2018-12-25T07:20:57.035Z,-1.00
2018-12-25T07:23:25.946Z,-1.00
2018-12-25T07:25:54.517Z,-1.00
2018-12-25T07:28:23.320Z,-1.00
2018-12-25T07:30:51.702Z,-1.00
2018-12-25T07:33:20.826Z,-1.00
2018-12-25T07:35:49.300Z,-1.00
2018-12-25T07:38:18.139Z,-0.90
2018-12-25T07:40:46.664Z,-0.80
2018-12-25T07:43:15.806Z,-0.80
2018-12-25T07:45:45.266Z,-0.80
2018-12-25T07:48:14.287Z,-0.90
2018-12-25T07:50:43.522Z,-0.80
2018-12-25T07:53:12.150Z,-0.80
2018-12-25T07:55:41.303Z,-0.70
2018-12-25T07:58:09.986Z,-0.60
2018-12-25T08:00:39.084Z,-0.60
2018-12-25T08:03:07.773Z,-0.60
2018-12-25T08:05:36.864Z,-0.60
2018-12-25T08:08:05.959Z,-0.60
2018-12-25T08:10:34.944Z,-0.70
2018-12-25T08:13:03.708Z,-0.70
2018-12-25T08:15:33.845Z,-0.70
2018-12-25T08:18:02.817Z,-0.60
2018-12-25T08:20:31.573Z,-0.60
2018-12-25T08:23:02.652Z,-0.80
2018-12-25T08:25:31.049Z,-0.80
2018-12-25T08:28:01.783Z,-0.70
2018-12-25T08:30:31.083Z,-0.60
2018-12-25T08:33:00.172Z,-0.70
2018-12-25T08:35:32.955Z,-0.60
2018-12-25T08:38:02.705Z,-0.60
2018-12-25T08:40:35.030Z,-0.50
2018-12-25T08:43:04.955Z,-0.50
2018-12-25T08:45:34.674Z,-0.40
2018-12-25T08:48:04.705Z,-0.50
2018-12-25T08:50:33.973Z,-0.40
2018-12-25T08:53:06.696Z,-0.30
2018-12-25T08:55:37.182Z,-0.40
2018-12-25T08:58:06.071Z,-0.30
2018-12-25T09:00:35.401Z,-0.30
2018-12-25T09:03:04.854Z,-0.20
2018-12-25T09:05:34.915Z,-0.20
2018-12-25T09:08:05.352Z,0.00
2018-12-25T09:10:34.722Z,0.00
2018-12-25T09:13:04.828Z,0.00
2018-12-25T09:15:34.066Z,0.00
2018-12-25T09:18:03.069Z,0.00
2018-12-25T09:20:33.597Z,0.00
2018-12-25T09:23:02.874Z,0.10
2018-12-25T09:25:32.295Z,0.20
2018-12-25T09:28:05.357Z,0.20
2018-12-25T09:30:34.917Z,0.40
2018-12-25T09:33:04.482Z,0.40
2018-12-25T09:35:33.734Z,0.40
2018-12-25T09:38:03.666Z,0.50
2018-12-25T09:40:33.038Z,0.40
2018-12-25T09:43:02.839Z,0.40
2018-12-25T09:45:35.113Z,0.60
2018-12-25T09:48:13.271Z,0.70
2018-12-25T09:50:36.555Z,0.70
2018-12-25T09:53:05.011Z,0.80
2018-12-25T09:55:33.825Z,0.70
2018-12-25T09:58:02.758Z,0.90
2018-12-25T10:00:31.141Z,0.80
2018-12-25T10:03:00.402Z,0.90
2018-12-25T10:05:29.659Z,1.00
2018-12-25T10:07:59.297Z,1.20
2018-12-25T10:10:28.593Z,1.10
2018-12-25T10:12:59.034Z,0.80
2018-12-25T10:15:28.270Z,0.80
2018-12-25T10:17:57.377Z,0.80
2018-12-25T10:20:28.245Z,0.90
2018-12-25T10:22:57.966Z,0.90
2018-12-25T10:25:28.340Z,0.90
2018-12-25T10:27:56.917Z,1.00
2018-12-25T10:30:25.307Z,1.20
2018-12-25T10:32:54.181Z,1.20
2018-12-25T10:35:23.412Z,1.10
2018-12-25T10:37:51.886Z,1.10
2018-12-25T10:40:21.257Z,0.80
2018-12-25T10:42:49.818Z,0.90
2018-12-25T10:45:18.811Z,0.80
2018-12-25T10:47:47.791Z,0.70
2018-12-25T10:50:17.547Z,0.80
2018-12-25T10:52:46.478Z,0.70
2018-12-25T10:55:19.540Z,0.70
2018-12-25T11:00:18.266Z,0.80
2018-12-25T11:02:47.565Z,0.70
2018-12-25T11:05:16.965Z,0.80
2018-12-25T11:07:46.214Z,0.50
2018-12-25T11:10:16.020Z,0.70
2018-12-25T11:12:46.992Z,0.70
2018-12-25T11:15:16.189Z,0.80
2018-12-25T11:17:46.112Z,0.90
2018-12-25T11:25:19.710Z,0.80
2018-12-25T11:27:49.206Z,1.00
2018-12-25T11:30:20.124Z,0.90
2018-12-25T11:35:18.502Z,1.10
2018-12-25T11:37:48.228Z,0.90
2018-12-25T11:40:16.917Z,0.90
2018-12-25T11:42:49.099Z,0.90
2018-12-25T11:45:17.506Z,0.90
2018-12-25T11:47:46.688Z,0.70
2018-12-25T11:50:17.857Z,0.70
2018-12-25T11:52:47.687Z,0.70
2018-12-25T11:55:17.681Z,0.70
2018-12-25T11:57:47.632Z,0.80
2018-12-25T12:00:17.659Z,0.70
2018-12-25T12:02:47.178Z,0.80
2018-12-25T12:05:19.049Z,0.90
2018-12-25T12:07:47.701Z,1.00
2018-12-25T12:10:16.249Z,1.00
2018-12-25T12:12:45.497Z,1.00
2018-12-25T12:15:18.160Z,1.00
2018-12-25T12:17:53.213Z,0.90
2018-12-25T12:20:29.423Z,0.90
2018-12-25T12:23:01.404Z,0.90
2018-12-25T12:25:39.212Z,0.90
2018-12-25T12:28:17.656Z,0.70
2018-12-25T12:33:27.529Z,0.70
2018-12-25T12:35:57.798Z,1.20
2018-12-25T12:38:37.753Z,0.80
2018-12-25T12:41:03.303Z,0.30
2018-12-25T12:43:33.753Z,1.60
2018-12-25T12:46:07.019Z,1.10
2018-12-25T12:48:38.795Z,1.00
2018-12-25T12:51:13.388Z,0.90
2018-12-25T12:53:46.900Z,0.90
2018-12-25T12:56:18.643Z,0.90
2018-12-25T12:58:51.442Z,0.80
2018-12-25T13:03:55.217Z,0.80
2018-12-25T13:06:30.663Z,0.70
2018-12-25T13:09:03.092Z,0.70
2018-12-25T13:11:35.819Z,0.70
2018-12-25T13:14:05.875Z,0.60
2018-12-25T13:16:34.902Z,0.70
2018-12-25T13:19:04.047Z,0.80
2018-12-25T13:21:33.341Z,0.80
2018-12-25T13:24:03.078Z,0.80
2018-12-25T13:26:32.130Z,0.60
2018-12-25T13:29:01.007Z,0.80
2018-12-25T13:31:29.558Z,1.10
2018-12-25T13:33:58.519Z,1.10
2018-12-25T13:36:27.117Z,1.00
2018-12-25T13:38:55.644Z,1.00
2018-12-25T13:41:24.085Z,1.20
2018-12-25T13:43:52.492Z,1.00
2018-12-25T13:46:20.885Z,1.10
2018-12-25T13:48:49.329Z,1.20
2018-12-25T13:51:17.827Z,1.10
2018-12-25T13:53:46.487Z,1.00
2018-12-25T13:56:14.925Z,1.00
2018-12-25T13:58:43.683Z,1.10
2018-12-25T14:01:12.075Z,1.50
2018-12-25T14:03:40.540Z,1.00
2018-12-25T14:06:08.947Z,1.00
2018-12-25T14:08:37.335Z,1.20
2018-12-25T14:11:06.628Z,1.10
2018-12-25T14:13:36.300Z,1.20
2018-12-25T14:16:04.695Z,1.20
2018-12-25T14:18:33.457Z,1.20
2018-12-25T14:21:02.189Z,1.20
2018-12-25T14:23:31.520Z,1.10
2018-12-25T14:26:00.211Z,1.10
2018-12-25T14:28:29.383Z,1.10
2018-12-25T14:30:57.766Z,1.10
2018-12-25T14:33:27.586Z,1.10
2018-12-25T14:35:56.149Z,1.10
2018-12-25T14:38:24.820Z,1.40
2018-12-25T14:40:53.855Z,1.10
2018-12-25T14:43:22.803Z,1.10
2018-12-25T14:45:51.377Z,1.00
2018-12-25T14:48:19.882Z,1.10
2018-12-25T14:50:48.691Z,1.10
2018-12-25T14:53:20.137Z,1.10
2018-12-25T14:55:48.788Z,1.70
2018-12-25T14:58:17.422Z,1.20
2018-12-25T15:00:46.005Z,1.20
2018-12-25T15:03:14.419Z,1.20
2018-12-25T15:05:42.996Z,1.30
2018-12-25T15:08:11.396Z,1.30
2018-12-25T15:10:39.819Z,1.30
2018-12-25T15:13:08.915Z,1.50
2018-12-25T15:15:37.298Z,1.20
2018-12-25T15:18:05.834Z,1.20
2018-12-25T15:20:34.275Z,1.20
2018-12-25T15:23:02.994Z,1.10
2018-12-25T15:25:31.473Z,1.10
2018-12-25T15:28:00.031Z,0.20
2018-12-25T15:30:28.510Z,1.10
2018-12-25T15:32:57.067Z,1.10
2018-12-25T15:35:26.643Z,1.10
2018-12-25T15:37:54.968Z,1.20
2018-12-25T15:40:23.400Z,1.10
2018-12-25T15:42:51.802Z,1.10
2018-12-25T15:45:20.370Z,1.20
2018-12-25T15:47:48.906Z,1.20
2018-12-25T15:50:17.296Z,1.30
2018-12-25T15:52:45.683Z,1.30
2018-12-25T15:55:15.096Z,1.40
2018-12-25T15:57:43.612Z,1.30
2018-12-25T16:00:14.863Z,1.40
2018-12-25T16:02:43.549Z,1.40
2018-12-25T16:05:12.241Z,1.40
2018-12-25T16:07:40.626Z,1.40
2018-12-25T16:10:09.144Z,1.50
2018-12-25T16:12:37.527Z,1.40
2018-12-25T16:17:34.615Z,1.20
2018-12-25T16:20:03.371Z,1.30
2018-12-25T16:22:31.992Z,1.20
2018-12-25T16:25:00.379Z,1.20
2018-12-25T16:27:28.924Z,1.10
2018-12-25T16:29:58.198Z,1.10
2018-12-25T16:32:26.876Z,1.10
2018-12-25T16:34:58.019Z,1.10
2018-12-25T16:37:26.449Z,1.00
2018-12-25T16:39:54.881Z,1.10
2018-12-25T16:42:23.486Z,1.10
2018-12-25T16:47:20.537Z,1.00
2018-12-25T16:54:45.530Z,1.00
2018-12-25T16:57:14.345Z,1.00
2018-12-25T16:59:42.805Z,1.10
2018-12-25T17:02:11.257Z,1.20
2018-12-25T17:04:39.640Z,1.10
2018-12-25T17:07:08.045Z,1.10
2018-12-25T17:12:04.922Z,1.10
2018-12-25T17:14:33.318Z,1.10
2018-12-25T17:17:01.868Z,1.10
2018-12-25T17:19:30.457Z,1.10
2018-12-25T17:21:58.932Z,1.10
2018-12-25T17:24:27.517Z,1.10
2018-12-25T17:26:56.050Z,1.10
2018-12-25T17:29:24.859Z,1.10
2018-12-25T17:31:53.571Z,1.20
2018-12-25T17:34:22.220Z,1.10
